sensor_id;sensor_type;location;lat;lon;timestamp;pressure;altitude;pressure_sealevel;temperature;humidity
72444;BME280;60449;52.016;5.414;2022-09-09T00:00:12;100694.22;;;14.86;90.23
72444;BME280;60449;52.016;5.414;2022-09-09T00:01:08;100690.84;;;14.73;91.13
72444;BME280;60449;52.016;5.414;2022-09-09T00:02:08;100682.66;;;14.89;91.55
72444;BME280;60449;52.016;5.414;2022-09-09T00:03:12;100680.75;;;14.99;90.96
72444;BME280;60449;52.016;5.414;2022-09-09T00:04:13;100679.91;;;14.97;91.12
72444;BME280;60449;52.016;5.414;2022-09-09T00:05:19;100678.84;;;15.12;90.70
72444;BME280;60449;52.016;5.414;2022-09-09T00:06:21;100674.19;;;15.26;89.72
72444;BME280;60449;52.016;5.414;2022-09-09T00:07:21;100678.09;;;15.02;89.71
72444;BME280;60449;52.016;5.414;2022-09-09T00:08:20;100681.81;;;14.85;90.52
72444;BME280;60449;52.016;5.414;2022-09-09T00:09:16;100679.28;;;14.79;91.15
72444;BME280;60449;52.016;5.414;2022-09-09T00:10:18;100679.53;;;14.57;92.04
72444;BME280;60449;52.016;5.414;2022-09-09T00:11:12;100682.13;;;14.61;92.31
72444;BME280;60449;52.016;5.414;2022-09-09T00:12:11;100680.47;;;14.50;92.98
72444;BME280;60449;52.016;5.414;2022-09-09T00:13:13;100683.25;;;14.41;93.57
72444;BME280;60449;52.016;5.414;2022-09-09T00:14:13;100696.44;;;14.47;93.40
72444;BME280;60449;52.016;5.414;2022-09-09T00:15:20;100671.56;;;14.57;94.07
72444;BME280;60449;52.016;5.414;2022-09-09T00:16:16;100680.19;;;14.77;93.02
72444;BME280;60449;52.016;5.414;2022-09-09T00:17:14;100681.13;;;14.71;92.63
72444;BME280;60449;52.016;5.414;2022-09-09T00:18:20;100682.63;;;14.94;91.82
72444;BME280;60449;52.016;5.414;2022-09-09T00:19:21;100678.63;;;14.55;92.53
72444;BME280;60449;52.016;5.414;2022-09-09T00:20:16;100681.44;;;14.44;93.21
72444;BME280;60449;52.016;5.414;2022-09-09T00:21:14;100677.91;;;14.44;93.26
72444;BME280;60449;52.016;5.414;2022-09-09T00:22:15;100681.44;;;14.46;93.31
72444;BME280;60449;52.016;5.414;2022-09-09T00:23:12;100686.00;;;14.31;93.96
72444;BME280;60449;52.016;5.414;2022-09-09T00:24:14;100678.16;;;14.22;94.38
72444;BME280;60449;52.016;5.414;2022-09-09T00:25:12;100674.59;;;14.25;95.00
72444;BME280;60449;52.016;5.414;2022-09-09T00:26:11;100679.03;;;14.23;94.56
72444;BME280;60449;52.016;5.414;2022-09-09T00:27:11;100679.94;;;14.22;95.01
72444;BME280;60449;52.016;5.414;2022-09-09T00:28:13;100674.59;;;14.23;94.88
72444;BME280;60449;52.016;5.414;2022-09-09T00:29:19;100677.38;;;14.14;95.11
72444;BME280;60449;52.016;5.414;2022-09-09T00:30:15;100672.91;;;14.16;95.09
72444;BME280;60449;52.016;5.414;2022-09-09T00:31:13;100680.88;;;14.14;94.86
72444;BME280;60449;52.016;5.414;2022-09-09T00:32:12;100676.44;;;14.16;94.87
72444;BME280;60449;52.016;5.414;2022-09-09T00:33:11;100679.81;;;14.31;94.64
72444;BME280;60449;52.016;5.414;2022-09-09T00:34:12;100670.09;;;14.33;94.42
72444;BME280;60449;52.016;5.414;2022-09-09T00:35:16;100678.09;;;14.28;93.96
72444;BME280;60449;52.016;5.414;2022-09-09T00:36:13;100664.00;;;14.25;93.77
72444;BME280;60449;52.016;5.414;2022-09-09T00:37:10;100672.75;;;14.31;93.59
72444;BME280;60449;52.016;5.414;2022-09-09T00:38:10;100672.88;;;14.19;93.80
72444;BME280;60449;52.016;5.414;2022-09-09T00:39:15;100665.75;;;14.26;93.69
72444;BME280;60449;52.016;5.414;2022-09-09T00:40:22;100673.56;;;14.37;93.57
72444;BME280;60449;52.016;5.414;2022-09-09T00:41:21;100671.94;;;14.26;93.92
72444;BME280;60449;52.016;5.414;2022-09-09T00:42:14;100665.69;;;14.30;93.67
72444;BME280;60449;52.016;5.414;2022-09-09T00:43:21;100667.50;;;14.27;93.30
72444;BME280;60449;52.016;5.414;2022-09-09T00:44:25;100667.63;;;14.16;93.86
72444;BME280;60449;52.016;5.414;2022-09-09T00:45:45;100663.91;;;14.34;93.64
72444;BME280;60449;52.016;5.414;2022-09-09T00:46:53;100664.84;;;14.25;92.95
72444;BME280;60449;52.016;5.414;2022-09-09T00:47:50;100664.13;;;14.12;93.27
72444;BME280;60449;52.016;5.414;2022-09-09T00:48:57;100659.69;;;14.13;94.05
72444;BME280;60449;52.016;5.414;2022-09-09T00:49:59;100668.63;;;14.02;94.47
72444;BME280;60449;52.016;5.414;2022-09-09T00:50:56;100663.25;;;14.10;94.52
72444;BME280;60449;52.016;5.414;2022-09-09T00:52:03;100671.16;;;14.15;93.63
72444;BME280;60449;52.016;5.414;2022-09-09T00:53:12;100664.78;;;14.31;92.89
72444;BME280;60449;52.016;5.414;2022-09-09T00:54:28;100658.31;;;14.54;92.42
72444;BME280;60449;52.016;5.414;2022-09-09T00:55:40;100670.53;;;14.68;91.27
72444;BME280;60449;52.016;5.414;2022-09-09T00:57:04;100670.81;;;14.46;91.53
72444;BME280;60449;52.016;5.414;2022-09-09T00:57:57;100671.97;;;14.22;92.68
72444;BME280;60449;52.016;5.414;2022-09-09T00:59:02;100673.50;;;14.41;92.61
72444;BME280;60449;52.016;5.414;2022-09-09T01:01:11;100672.38;;;14.61;91.70
72444;BME280;60449;52.016;5.414;2022-09-09T01:02:03;100669.16;;;14.36;91.91
72444;BME280;60449;52.016;5.414;2022-09-09T01:03:19;100679.16;;;14.12;93.24
72444;BME280;60449;52.016;5.414;2022-09-09T01:04:14;100664.78;;;14.33;93.11
72444;BME280;60449;52.016;5.414;2022-09-09T01:05:33;100672.97;;;14.13;93.33
72444;BME280;60449;52.016;5.414;2022-09-09T01:06:31;100674.72;;;14.12;93.45
72444;BME280;60449;52.016;5.414;2022-09-09T01:07:29;100672.16;;;14.05;93.61
72444;BME280;60449;52.016;5.414;2022-09-09T01:08:34;100670.22;;;14.19;94.14
72444;BME280;60449;52.016;5.414;2022-09-09T01:09:38;100673.13;;;13.96;94.26
72444;BME280;60449;52.016;5.414;2022-09-09T01:10:43;100678.28;;;14.10;93.86
72444;BME280;60449;52.016;5.414;2022-09-09T01:11:52;100669.38;;;14.17;93.57
72444;BME280;60449;52.016;5.414;2022-09-09T01:12:58;100674.56;;;14.28;92.82
72444;BME280;60449;52.016;5.414;2022-09-09T01:14:10;100665.78;;;14.21;92.83
72444;BME280;60449;52.016;5.414;2022-09-09T01:15:12;100673.88;;;14.09;93.38
72444;BME280;60449;52.016;5.414;2022-09-09T01:16:10;100664.84;;;14.25;93.32
72444;BME280;60449;52.016;5.414;2022-09-09T01:17:05;100661.31;;;14.26;92.72
72444;BME280;60449;52.016;5.414;2022-09-09T01:18:07;100667.44;;;14.31;91.80
72444;BME280;60449;52.016;5.414;2022-09-09T01:19:01;100657.78;;;14.24;92.09
72444;BME280;60449;52.016;5.414;2022-09-09T01:20:05;100663.84;;;14.36;91.66
72444;BME280;60449;52.016;5.414;2022-09-09T01:21:06;100662.06;;;14.38;91.34
72444;BME280;60449;52.016;5.414;2022-09-09T01:22:09;100666.88;;;14.01;92.15
72444;BME280;60449;52.016;5.414;2022-09-09T01:23:19;100658.59;;;14.31;92.45
72444;BME280;60449;52.016;5.414;2022-09-09T01:24:34;100659.41;;;14.38;91.11
72444;BME280;60449;52.016;5.414;2022-09-09T01:26:09;100655.66;;;14.54;90.75
72444;BME280;60449;52.016;5.414;2022-09-09T01:27:06;100648.69;;;14.49;91.06
72444;BME280;60449;52.016;5.414;2022-09-09T01:28:01;100661.28;;;14.28;90.94
72444;BME280;60449;52.016;5.414;2022-09-09T01:28:58;100651.59;;;14.27;91.16
72444;BME280;60449;52.016;5.414;2022-09-09T01:29:49;100655.88;;;14.37;91.23
72444;BME280;60449;52.016;5.414;2022-09-09T01:30:41;100658.84;;;14.11;91.33
72444;BME280;60449;52.016;5.414;2022-09-09T01:31:37;100660.72;;;13.99;91.78
72444;BME280;60449;52.016;5.414;2022-09-09T01:32:44;100667.81;;;13.94;92.66
72444;BME280;60449;52.016;5.414;2022-09-09T01:33:34;100653.63;;;14.03;92.73
72444;BME280;60449;52.016;5.414;2022-09-09T01:34:33;100654.50;;;14.02;92.86
72444;BME280;60449;52.016;5.414;2022-09-09T01:35:42;100652.91;;;13.85;92.92
72444;BME280;60449;52.016;5.414;2022-09-09T01:36:38;100654.50;;;14.05;92.86
72444;BME280;60449;52.016;5.414;2022-09-09T01:37:30;100651.13;;;13.86;93.21
72444;BME280;60449;52.016;5.414;2022-09-09T01:38:22;100652.91;;;13.85;93.18
72444;BME280;60449;52.016;5.414;2022-09-09T01:39:14;100653.63;;;14.00;93.08
72444;BME280;60449;52.016;5.414;2022-09-09T01:40:06;100648.25;;;14.08;92.90
72444;BME280;60449;52.016;5.414;2022-09-09T01:40:56;100646.53;;;14.03;92.62
72444;BME280;60449;52.016;5.414;2022-09-09T01:41:49;100649.09;;;14.13;92.15
72444;BME280;60449;52.016;5.414;2022-09-09T01:42:39;100649.78;;;14.29;91.67
72444;BME280;60449;52.016;5.414;2022-09-09T01:43:30;100651.44;;;14.39;91.10
72444;BME280;60449;52.016;5.414;2022-09-09T01:44:20;100642.03;;;14.12;91.02
72444;BME280;60449;52.016;5.414;2022-09-09T01:45:11;100648.97;;;14.22;91.42
72444;BME280;60449;52.016;5.414;2022-09-09T01:46:01;100659.94;;;13.88;92.04
72444;BME280;60449;52.016;5.414;2022-09-09T01:46:51;100649.28;;;13.94;92.58
72444;BME280;60449;52.016;5.414;2022-09-09T01:47:42;100658.94;;;14.01;91.88
72444;BME280;60449;52.016;5.414;2022-09-09T01:48:33;100650.16;;;13.93;92.16
72444;BME280;60449;52.016;5.414;2022-09-09T01:49:23;100652.03;;;13.83;92.71
72444;BME280;60449;52.016;5.414;2022-09-09T01:50:15;100652.81;;;13.95;92.83
72444;BME280;60449;52.016;5.414;2022-09-09T01:51:07;100655.47;;;13.93;92.59
72444;BME280;60449;52.016;5.414;2022-09-09T01:51:59;100651.06;;;13.94;92.29
72444;BME280;60449;52.016;5.414;2022-09-09T01:52:52;100653.75;;;13.89;92.34
72444;BME280;60449;52.016;5.414;2022-09-09T01:53:47;100652.09;;;13.76;92.78
72444;BME280;60449;52.016;5.414;2022-09-09T01:54:38;100648.69;;;13.64;93.28
72444;BME280;60449;52.016;5.414;2022-09-09T01:55:31;100654.00;;;13.61;93.44
72444;BME280;60449;52.016;5.414;2022-09-09T01:56:43;100652.06;;;13.79;93.19
72444;BME280;60449;52.016;5.414;2022-09-09T01:57:55;100649.59;;;13.60;93.34
72444;BME280;60449;52.016;5.414;2022-09-09T01:58:58;100655.63;;;13.79;93.61
72444;BME280;60449;52.016;5.414;2022-09-09T02:00:03;100645.66;;;14.05;92.75
72444;BME280;60449;52.016;5.414;2022-09-09T02:01:02;100632.34;;;14.09;91.62
72444;BME280;60449;52.016;5.414;2022-09-09T02:02:18;100632.03;;;14.37;90.75
72444;BME280;60449;52.016;5.414;2022-09-09T02:03:18;100639.25;;;14.23;90.17
72444;BME280;60449;52.016;5.414;2022-09-09T02:04:23;100638.00;;;14.53;90.04
72444;BME280;60449;52.016;5.414;2022-09-09T02:05:27;100637.84;;;14.66;88.91
72444;BME280;60449;52.016;5.414;2022-09-09T02:06:28;100640.25;;;14.86;88.41
72444;BME280;60449;52.016;5.414;2022-09-09T02:07:34;100631.22;;;14.99;87.20
72444;BME280;60449;52.016;5.414;2022-09-09T02:08:37;100636.56;;;14.96;86.69
72444;BME280;60449;52.016;5.414;2022-09-09T02:09:32;100629.53;;;14.92;86.49
72444;BME280;60449;52.016;5.414;2022-09-09T02:10:30;100636.47;;;15.01;86.54
72444;BME280;60449;52.016;5.414;2022-09-09T02:11:26;100626.81;;;14.97;86.17
72444;BME280;60449;52.016;5.414;2022-09-09T02:12:24;100617.81;;;15.07;86.21
72444;BME280;60449;52.016;5.414;2022-09-09T02:13:20;100617.66;;;15.18;85.67
72444;BME280;60449;52.016;5.414;2022-09-09T02:14:19;100619.44;;;15.18;85.24
72444;BME280;60449;52.016;5.414;2022-09-09T02:15:19;100620.97;;;15.31;85.28
72444;BME280;60449;52.016;5.414;2022-09-09T02:16:17;100635.13;;;14.70;86.14
72444;BME280;60449;52.016;5.414;2022-09-09T02:17:11;100621.38;;;14.39;87.30
72444;BME280;60449;52.016;5.414;2022-09-09T02:18:08;100627.47;;;14.47;88.13
72444;BME280;60449;52.016;5.414;2022-09-09T02:19:07;100618.72;;;14.42;88.21
72444;BME280;60449;52.016;5.414;2022-09-09T02:20:07;100625.06;;;14.28;88.45
72444;BME280;60449;52.016;5.414;2022-09-09T02:20:59;100627.22;;;13.94;89.61
72444;BME280;60449;52.016;5.414;2022-09-09T02:21:54;100620.19;;;13.90;91.02
72444;BME280;60449;52.016;5.414;2022-09-09T02:22:49;100622.69;;;14.03;90.69
72444;BME280;60449;52.016;5.414;2022-09-09T02:23:42;100631.78;;;13.78;91.35
72444;BME280;60449;52.016;5.414;2022-09-09T02:24:39;100628.38;;;13.63;92.07
72444;BME280;60449;52.016;5.414;2022-09-09T02:25:34;100629.31;;;13.59;92.48
72444;BME280;60449;52.016;5.414;2022-09-09T02:26:38;100637.22;;;13.65;93.00
72444;BME280;60449;52.016;5.414;2022-09-09T02:27:29;100633.69;;;13.63;92.65
72444;BME280;60449;52.016;5.414;2022-09-09T02:29:30;100625.63;;;13.77;92.35
72444;BME280;60449;52.016;5.414;2022-09-09T02:30:28;100636.09;;;13.86;91.95
72444;BME280;60449;52.016;5.414;2022-09-09T02:39:56;100617.47;;;13.97;90.60
72444;BME280;60449;52.016;5.414;2022-09-09T02:40:54;100627.38;;;13.77;90.73
72444;BME280;60449;52.016;5.414;2022-09-09T02:41:44;100627.56;;;13.59;91.61
72444;BME280;60449;52.016;5.414;2022-09-09T02:44:10;100624.94;;;13.55;92.17
72444;BME280;60449;52.016;5.414;2022-09-09T02:45:04;100628.41;;;13.60;92.04
72444;BME280;60449;52.016;5.414;2022-09-09T02:46:07;100624.59;;;13.87;91.15
72444;BME280;60449;52.016;5.414;2022-09-09T02:48:17;100632.78;;;13.64;91.96
72444;BME280;60449;52.016;5.414;2022-09-09T06:05:42;100585.00;;;14.50;93.05
72444;BME280;60449;52.016;5.414;2022-09-09T06:06:43;100588.47;;;14.54;92.65
72444;BME280;60449;52.016;5.414;2022-09-09T06:07:34;100583.13;;;14.58;92.57
72444;BME280;60449;52.016;5.414;2022-09-09T06:08:40;100583.94;;;14.62;92.08
72444;BME280;60449;52.016;5.414;2022-09-09T06:09:31;100588.28;;;14.68;91.55
72444;BME280;60449;52.016;5.414;2022-09-09T06:10:22;100595.44;;;14.61;91.92
72444;BME280;60449;52.016;5.414;2022-09-09T06:11:14;100592.72;;;14.67;92.12
72444;BME280;60449;52.016;5.414;2022-09-09T06:12:05;100584.78;;;14.66;91.92
72444;BME280;60449;52.016;5.414;2022-09-09T06:12:54;100588.53;;;14.49;92.49
72444;BME280;60449;52.016;5.414;2022-09-09T06:13:45;100592.19;;;14.39;92.77
72444;BME280;60449;52.016;5.414;2022-09-09T06:14:36;100583.88;;;14.67;92.84
72444;BME280;60449;52.016;5.414;2022-09-09T06:15:27;100586.69;;;14.54;92.53
72444;BME280;60449;52.016;5.414;2022-09-09T06:16:18;100590.19;;;14.58;92.72
72444;BME280;60449;52.016;5.414;2022-09-09T06:17:09;100590.09;;;14.66;92.50
72444;BME280;60449;52.016;5.414;2022-09-09T06:17:59;100583.28;;;14.44;93.04
72444;BME280;60449;52.016;5.414;2022-09-09T06:18:49;100588.44;;;14.55;93.10
72444;BME280;60449;52.016;5.414;2022-09-09T06:19:46;100587.34;;;14.73;92.32
72444;BME280;60449;52.016;5.414;2022-09-09T06:20:41;100587.38;;;14.72;92.05
72444;BME280;60449;52.016;5.414;2022-09-09T06:21:32;100587.59;;;14.55;92.23
72444;BME280;60449;52.016;5.414;2022-09-09T06:22:24;100591.94;;;14.61;92.59
72444;BME280;60449;52.016;5.414;2022-09-09T06:23:13;100584.94;;;14.56;92.46
72444;BME280;60449;52.016;5.414;2022-09-09T06:24:06;100590.97;;;14.66;92.26
72444;BME280;60449;52.016;5.414;2022-09-09T06:25:20;100583.13;;;14.55;93.15
72444;BME280;60449;52.016;5.414;2022-09-09T06:26:13;100584.94;;;14.56;93.03
72444;BME280;60449;52.016;5.414;2022-09-09T06:27:03;100589.94;;;14.78;92.53
72444;BME280;60449;52.016;5.414;2022-09-09T06:27:54;100590.84;;;14.79;92.35
72444;BME280;60449;52.016;5.414;2022-09-09T06:28:44;100590.03;;;14.70;92.52
72444;BME280;60449;52.016;5.414;2022-09-09T06:29:34;100591.03;;;14.62;93.39
72444;BME280;60449;52.016;5.414;2022-09-09T06:30:24;100576.81;;;14.67;93.25
72444;BME280;60449;52.016;5.414;2022-09-09T06:31:16;100577.66;;;14.71;93.87
72444;BME280;60449;52.016;5.414;2022-09-09T06:32:06;100582.75;;;14.86;93.09
72444;BME280;60449;52.016;5.414;2022-09-09T06:32:57;100585.34;;;14.90;92.22
72444;BME280;60449;52.016;5.414;2022-09-09T06:33:48;100582.53;;;14.99;92.51
72444;BME280;60449;52.016;5.414;2022-09-09T06:34:38;100581.81;;;14.91;92.53
72444;BME280;60449;52.016;5.414;2022-09-09T06:35:29;100581.44;;;15.12;91.75
72444;BME280;60449;52.016;5.414;2022-09-09T06:36:33;100578.00;;;15.07;91.52
72444;BME280;60449;52.016;5.414;2022-09-09T06:37:23;100574.50;;;15.05;91.95
72444;BME280;60449;52.016;5.414;2022-09-09T06:38:16;100573.59;;;15.06;91.84
72444;BME280;60449;52.016;5.414;2022-09-09T06:39:06;100586.09;;;14.98;92.14
72444;BME280;60449;52.016;5.414;2022-09-09T06:40:02;100579.69;;;15.11;90.86
72444;BME280;60449;52.016;5.414;2022-09-09T06:40:52;100571.13;;;14.92;91.66
72444;BME280;60449;52.016;5.414;2022-09-09T06:41:44;100573.72;;;14.97;92.19
72444;BME280;60449;52.016;5.414;2022-09-09T06:42:33;100569.84;;;15.20;91.73
72444;BME280;60449;52.016;5.414;2022-09-09T06:43:24;100571.78;;;15.08;91.94
72444;BME280;60449;52.016;5.414;2022-09-09T06:44:20;100578.84;;;15.09;92.25
72444;BME280;60449;52.016;5.414;2022-09-09T06:45:11;100574.25;;;15.21;92.51
72444;BME280;60449;52.016;5.414;2022-09-09T06:46:03;100578.78;;;15.12;92.31
72444;BME280;60449;52.016;5.414;2022-09-09T06:46:54;100569.84;;;15.20;90.73
72444;BME280;60449;52.016;5.414;2022-09-09T06:47:44;100577.16;;;15.05;91.65
72444;BME280;60449;52.016;5.414;2022-09-09T06:48:34;100570.88;;;15.09;91.91
72444;BME280;60449;52.016;5.414;2022-09-09T06:49:23;100570.75;;;15.19;91.04
72444;BME280;60449;52.016;5.414;2022-09-09T06:50:14;100576.97;;;15.14;91.35
72444;BME280;60449;52.016;5.414;2022-09-09T06:51:07;100576.06;;;15.19;91.04
72444;BME280;60449;52.016;5.414;2022-09-09T06:51:59;100564.53;;;15.20;91.00
72444;BME280;60449;52.016;5.414;2022-09-09T06:52:49;100565.56;;;15.09;91.38
72444;BME280;60449;52.016;5.414;2022-09-09T06:53:42;100561.88;;;15.18;91.72
72444;BME280;60449;52.016;5.414;2022-09-09T06:54:33;100565.50;;;15.14;91.95
72444;BME280;60449;52.016;5.414;2022-09-09T06:55:41;100566.34;;;15.14;91.42
72444;BME280;60449;52.016;5.414;2022-09-09T06:56:35;100572.44;;;15.21;90.66
72444;BME280;60449;52.016;5.414;2022-09-09T06:57:24;100575.22;;;15.13;90.45
72444;BME280;60449;52.016;5.414;2022-09-09T06:58:15;100570.88;;;15.09;91.37
72444;BME280;60449;52.016;5.414;2022-09-09T07:01:58;100563.88;;;15.04;91.51
72444;BME280;60449;52.016;5.414;2022-09-09T07:02:50;100570.91;;;15.08;92.04
72444;BME280;60449;52.016;5.414;2022-09-09T07:03:44;100564.47;;;15.23;91.11
72444;BME280;60449;52.016;5.414;2022-09-09T07:04:35;100569.00;;;15.18;91.88
72444;BME280;60449;52.016;5.414;2022-09-09T07:05:25;100557.22;;;15.33;91.14
72444;BME280;60449;52.016;5.414;2022-09-09T07:06:18;100565.25;;;15.28;90.91
72444;BME280;60449;52.016;5.414;2022-09-09T07:07:09;100562.16;;;15.54;90.75
72444;BME280;60449;52.016;5.414;2022-09-09T07:08:02;100568.06;;;15.69;90.69
72444;BME280;60449;52.016;5.414;2022-09-09T07:08:53;100567.22;;;15.67;88.80
72444;BME280;60449;52.016;5.414;2022-09-09T07:09:44;100569.25;;;15.54;89.06
72444;BME280;60449;52.016;5.414;2022-09-09T07:10:34;100558.75;;;15.44;88.86
72444;BME280;60449;52.016;5.414;2022-09-09T07:11:27;100568.47;;;15.49;88.70
72444;BME280;60449;52.016;5.414;2022-09-09T07:12:21;100566.59;;;15.52;89.38
72444;BME280;60449;52.016;5.414;2022-09-09T07:13:11;100563.00;;;15.55;89.85
72444;BME280;60449;52.016;5.414;2022-09-09T07:14:01;100571.88;;;15.55;89.76
72444;BME280;60449;52.016;5.414;2022-09-09T07:14:51;100575.56;;;15.47;88.71
72444;BME280;60449;52.016;5.414;2022-09-09T07:15:41;100568.53;;;15.44;88.49
72444;BME280;60449;52.016;5.414;2022-09-09T07:16:32;100563.34;;;15.36;88.93
72444;BME280;60449;52.016;5.414;2022-09-09T07:18:24;100565.94;;;15.39;89.93
72444;BME280;60449;52.016;5.414;2022-09-09T07:19:15;100569.50;;;15.38;90.12
72444;BME280;60449;52.016;5.414;2022-09-09T07:20:06;100570.28;;;15.43;88.67
72444;BME280;60449;52.016;5.414;2022-09-09T07:25:25;100566.22;;;15.24;88.90
72444;BME280;60449;52.016;5.414;2022-09-09T07:26:24;100563.41;;;15.33;88.97
72444;BME280;60449;52.016;5.414;2022-09-09T07:27:14;100567.78;;;15.36;89.05
72444;BME280;60449;52.016;5.414;2022-09-09T07:28:05;100565.94;;;15.39;88.84
72444;BME280;60449;52.016;5.414;2022-09-09T07:28:56;100569.44;;;15.43;88.60
72444;BME280;60449;52.016;5.414;2022-09-09T07:29:47;100556.22;;;15.38;87.77
72444;BME280;60449;52.016;5.414;2022-09-09T07:34:05;100573.91;;;15.41;87.48
72444;BME280;60449;52.016;5.414;2022-09-09T07:34:57;100574.56;;;15.52;87.34
72444;BME280;60449;52.016;5.414;2022-09-09T07:35:48;100580.50;;;15.67;87.08
72444;BME280;60449;52.016;5.414;2022-09-09T07:36:46;100565.75;;;15.52;86.82
72444;BME280;60449;52.016;5.414;2022-09-09T07:38:38;100566.34;;;15.66;87.50
72444;BME280;60449;52.016;5.414;2022-09-09T07:39:29;100576.03;;;15.70;87.64
72444;BME280;60449;52.016;5.414;2022-09-09T07:40:19;100568.81;;;15.76;87.19
72444;BME280;60449;52.016;5.414;2022-09-09T07:41:15;100568.72;;;15.82;87.71
72444;BME280;60449;52.016;5.414;2022-09-09T07:42:06;100573.03;;;15.89;86.23
72444;BME280;60449;52.016;5.414;2022-09-09T07:42:59;100561.38;;;15.96;86.39
72444;BME280;60449;52.016;5.414;2022-09-09T07:43:49;100566.41;;;16.10;85.59
72444;BME280;60449;52.016;5.414;2022-09-09T07:44:40;100572.03;;;15.96;85.73
72444;BME280;60449;52.016;5.414;2022-09-09T07:45:31;100570.03;;;16.08;85.83
72444;BME280;60449;52.016;5.414;2022-09-09T07:48:05;100570.56;;;15.77;85.53
72444;BME280;60449;52.016;5.414;2022-09-09T07:50:48;100575.84;;;15.80;85.36
72444;BME280;60449;52.016;5.414;2022-09-09T07:52:12;100570.63;;;15.73;86.18
72444;BME280;60449;52.016;5.414;2022-09-09T07:53:06;100576.84;;;15.74;86.74
72444;BME280;60449;52.016;5.414;2022-09-09T07:53:58;100585.59;;;15.81;85.46
72444;BME280;60449;52.016;5.414;2022-09-09T07:54:49;100582.88;;;15.82;85.81
72444;BME280;60449;52.016;5.414;2022-09-09T07:55:48;100577.66;;;15.78;86.33
72444;BME280;60449;52.016;5.414;2022-09-09T09:24:53;100613.81;;;16.34;79.99
72444;BME280;60449;52.016;5.414;2022-09-09T09:25:46;100601.56;;;16.26;80.45
72444;BME280;60449;52.016;5.414;2022-09-09T09:26:57;100621.03;;;16.27;80.67
72444;BME280;60449;52.016;5.414;2022-09-09T09:29:44;100616.44;;;16.35;80.38
72444;BME280;60449;52.016;5.414;2022-09-09T09:30:47;100615.63;;;16.32;80.73
72444;BME280;60449;52.016;5.414;2022-09-09T09:35:22;100613.75;;;16.37;80.04
72444;BME280;60449;52.016;5.414;2022-09-09T10:00:04;100610.47;;;16.66;78.27
72444;BME280;60449;52.016;5.414;2022-09-09T10:01:29;100609.91;;;16.50;79.48
72444;BME280;60449;52.016;5.414;2022-09-09T10:02:38;100605.97;;;16.70;78.73
72444;BME280;60449;52.016;5.414;2022-09-09T10:03:51;100610.72;;;16.55;79.14
72444;BME280;60449;52.016;5.414;2022-09-09T10:06:49;100616.66;;;16.67;78.95
72444;BME280;60449;52.016;5.414;2022-09-09T10:10:39;100613.16;;;16.65;78.55
72444;BME280;60449;52.016;5.414;2022-09-09T10:17:57;100617.63;;;16.63;79.42
72444;BME280;60449;52.016;5.414;2022-09-09T10:19:13;100621.63;;;16.41;80.19
72444;BME280;60449;52.016;5.414;2022-09-09T10:22:52;100616.53;;;16.32;82.86
72444;BME280;60449;52.016;5.414;2022-09-09T10:24:44;100626.91;;;15.99;84.93
72444;BME280;60449;52.016;5.414;2022-09-09T10:29:59;100632.63;;;15.76;86.95
72444;BME280;60449;52.016;5.414;2022-09-09T10:31:17;100635.97;;;15.87;86.75
72444;BME280;60449;52.016;5.414;2022-09-09T10:32:37;100636.38;;;15.65;88.42
72444;BME280;60449;52.016;5.414;2022-09-09T10:33:48;100641.75;;;15.59;89.62
72444;BME280;60449;52.016;5.414;2022-09-09T10:34:56;100636.81;;;15.37;90.90
72444;BME280;60449;52.016;5.414;2022-09-09T10:35:54;100644.00;;;15.32;92.00
72444;BME280;60449;52.016;5.414;2022-09-09T10:36:52;100643.91;;;15.38;92.67
72444;BME280;60449;52.016;5.414;2022-09-09T10:39:20;100639.28;;;15.48;92.51
72444;BME280;60449;52.016;5.414;2022-09-09T10:40:33;100630.47;;;15.46;92.50
72444;BME280;60449;52.016;5.414;2022-09-09T10:41:42;100633.06;;;15.51;92.34
72444;BME280;60449;52.016;5.414;2022-09-09T10:42:34;100641.09;;;15.46;92.73
72444;BME280;60449;52.016;5.414;2022-09-09T10:44:59;100632.75;;;15.68;93.21
72444;BME280;60449;52.016;5.414;2022-09-09T10:46:09;100619.66;;;15.57;92.50
72444;BME280;60449;52.016;5.414;2022-09-09T10:49:19;100620.81;;;15.94;92.41
72444;BME280;60449;52.016;5.414;2022-09-09T10:50:51;100621.31;;;16.13;91.91
72444;BME280;60449;52.016;5.414;2022-09-09T11:21:53;100617.34;;;16.77;85.56
72444;BME280;60449;52.016;5.414;2022-09-09T11:22:52;100618.06;;;17.23;84.75
72444;BME280;60449;52.016;5.414;2022-09-09T11:34:21;100603.03;;;16.81;84.61
72444;BME280;60449;52.016;5.414;2022-09-09T11:35:30;100601.50;;;16.70;84.24
72444;BME280;60449;52.016;5.414;2022-09-09T11:36:38;100607.75;;;16.68;85.22
72444;BME280;60449;52.016;5.414;2022-09-09T11:38:18;100609.56;;;16.66;84.40
72444;BME280;60449;52.016;5.414;2022-09-09T11:41:09;100601.75;;;16.60;85.29
72444;BME280;60449;52.016;5.414;2022-09-09T11:42:24;100593.16;;;16.47;85.13
72444;BME280;60449;52.016;5.414;2022-09-09T11:43:25;100593.09;;;16.48;83.71
72444;BME280;60449;52.016;5.414;2022-09-09T11:44:29;100581.56;;;16.49;84.13
72444;BME280;60449;52.016;5.414;2022-09-09T11:45:27;100599.41;;;16.44;84.15
72444;BME280;60449;52.016;5.414;2022-09-09T11:47:30;100602.06;;;16.46;83.51
72444;BME280;60449;52.016;5.414;2022-09-09T11:48:28;100597.66;;;16.43;83.45
72444;BME280;60449;52.016;5.414;2022-09-09T11:49:28;100600.19;;;16.49;84.27
72444;BME280;60449;52.016;5.414;2022-09-09T11:50:32;100597.66;;;16.43;83.99
72444;BME280;60449;52.016;5.414;2022-09-09T11:51:27;100593.09;;;16.50;84.33
72444;BME280;60449;52.016;5.414;2022-09-09T11:52:34;100608.38;;;16.40;84.37
72444;BME280;60449;52.016;5.414;2022-09-09T11:53:49;100602.31;;;16.32;83.59
72444;BME280;60449;52.016;5.414;2022-09-09T11:54:48;100585.53;;;16.29;83.84